Radcliffe, Iowa
Current Conditions -  °F | °C
As of 8:55 PM on Wednesday 26 Nov 2014 (Local Time) from KIFA Reporting Station
Overcast Overcast  
Wind Chill: 13°   Ceiling: 1100
Heat Index: 26°   Visibility: 10mi
Dew Point: 22°   Wind: 16mph
Humidity: 88%   Direction: 340°NNW
Pressure: 30.29"   Gusts: NA
Location:  42.32°N, 93.43°W
Report Text: KIFA 270255Z AUTO 34014KT 10SM BKN011 OVC018 M04/M05 A3029 RMK AO2 T10361053
Loading
Personal Weather Stations






























Interactive Weather Map New forecast layout! Learn more

10-Day Weather Forecast

Advertisements
Track Severe Weather on mobile